sensor_id;sensor_type;location;lat;lon;timestamp;P1;durP1;ratioP1;P2;durP2;ratioP2
21546;SDS011;41275;51.912;4.388;2023-03-23T00:04:02;5.78;;;2.10;;
21546;SDS011;41275;51.912;4.388;2023-03-23T00:09:24;7.00;;;2.05;;
21546;SDS011;41275;51.912;4.388;2023-03-23T00:14:45;6.05;;;1.85;;
21546;SDS011;41275;51.912;4.388;2023-03-23T00:20:07;6.32;;;1.90;;
21546;SDS011;41275;51.912;4.388;2023-03-23T00:25:31;8.65;;;2.28;;
21546;SDS011;41275;51.912;4.388;2023-03-23T00:30:59;6.27;;;2.00;;
21546;SDS011;41275;51.912;4.388;2023-03-23T00:36:22;5.07;;;2.00;;
21546;SDS011;41275;51.912;4.388;2023-03-23T00:41:44;7.65;;;2.60;;
21546;SDS011;41275;51.912;4.388;2023-03-23T00:47:07;4.85;;;2.03;;
21546;SDS011;41275;51.912;4.388;2023-03-23T00:52:30;4.93;;;2.08;;
21546;SDS011;41275;51.912;4.388;2023-03-23T00:57:51;5.77;;;1.77;;
21546;SDS011;41275;51.912;4.388;2023-03-23T01:03:12;7.28;;;1.90;;
21546;SDS011;41275;51.912;4.388;2023-03-23T01:08:39;3.17;;;1.70;;
21546;SDS011;41275;51.912;4.388;2023-03-23T01:14:05;5.13;;;1.63;;
21546;SDS011;41275;51.912;4.388;2023-03-23T01:19:27;3.63;;;1.50;;
21546;SDS011;41275;51.912;4.388;2023-03-23T01:24:48;3.72;;;1.70;;
21546;SDS011;41275;51.912;4.388;2023-03-23T01:30:10;4.80;;;1.50;;
21546;SDS011;41275;51.912;4.388;2023-03-23T01:35:32;5.20;;;1.50;;
21546;SDS011;41275;51.912;4.388;2023-03-23T01:40:54;3.90;;;1.33;;
21546;SDS011;41275;51.912;4.388;2023-03-23T01:46:15;3.28;;;1.42;;
21546;SDS011;41275;51.912;4.388;2023-03-23T01:51:37;2.70;;;1.23;;
21546;SDS011;41275;51.912;4.388;2023-03-23T01:57:04;3.13;;;1.42;;
21546;SDS011;41275;51.912;4.388;2023-03-23T02:02:28;5.43;;;1.60;;
21546;SDS011;41275;51.912;4.388;2023-03-23T02:07:49;3.10;;;1.30;;
21546;SDS011;41275;51.912;4.388;2023-03-23T02:13:12;4.80;;;1.57;;
21546;SDS011;41275;51.912;4.388;2023-03-23T02:24:42;2.90;;;1.48;;
21546;SDS011;41275;51.912;4.388;2023-03-23T02:30:17;3.73;;;1.30;;
21546;SDS011;41275;51.912;4.388;2023-03-23T02:35:50;3.95;;;1.40;;
21546;SDS011;41275;51.912;4.388;2023-03-23T02:41:18;6.07;;;1.48;;
21546;SDS011;41275;51.912;4.388;2023-03-23T02:46:42;4.50;;;1.15;;
21546;SDS011;41275;51.912;4.388;2023-03-23T02:52:06;4.10;;;1.27;;
21546;SDS011;41275;51.912;4.388;2023-03-23T02:57:34;5.35;;;1.52;;
21546;SDS011;41275;51.912;4.388;2023-03-23T03:02:58;3.80;;;1.27;;
21546;SDS011;41275;51.912;4.388;2023-03-23T03:08:35;3.27;;;1.23;;
21546;SDS011;41275;51.912;4.388;2023-03-23T03:19:26;3.03;;;1.20;;
21546;SDS011;41275;51.912;4.388;2023-03-23T03:24:54;3.10;;;1.20;;
21546;SDS011;41275;51.912;4.388;2023-03-23T03:30:20;3.33;;;1.33;;
21546;SDS011;41275;51.912;4.388;2023-03-23T03:35:44;4.40;;;1.30;;
21546;SDS011;41275;51.912;4.388;2023-03-23T03:41:06;4.45;;;1.52;;
21546;SDS011;41275;51.912;4.388;2023-03-23T03:46:27;5.53;;;1.50;;
21546;SDS011;41275;51.912;4.388;2023-03-23T03:51:50;4.07;;;1.30;;
21546;SDS011;41275;51.912;4.388;2023-03-23T03:57:11;3.70;;;1.15;;
21546;SDS011;41275;51.912;4.388;2023-03-23T04:02:33;3.73;;;1.17;;
21546;SDS011;41275;51.912;4.388;2023-03-23T04:07:54;5.95;;;1.20;;
21546;SDS011;41275;51.912;4.388;2023-03-23T04:13:22;6.00;;;1.58;;
21546;SDS011;41275;51.912;4.388;2023-03-23T04:18:43;5.47;;;1.20;;
21546;SDS011;41275;51.912;4.388;2023-03-23T04:24:04;5.63;;;1.30;;
21546;SDS011;41275;51.912;4.388;2023-03-23T04:29:26;9.88;;;1.52;;
21546;SDS011;41275;51.912;4.388;2023-03-23T04:34:47;8.27;;;1.35;;
21546;SDS011;41275;51.912;4.388;2023-03-23T04:40:10;9.48;;;1.55;;
21546;SDS011;41275;51.912;4.388;2023-03-23T04:45:35;5.55;;;1.40;;
21546;SDS011;41275;51.912;4.388;2023-03-23T04:50:58;10.27;;;1.65;;
21546;SDS011;41275;51.912;4.388;2023-03-23T04:56:21;6.60;;;1.70;;
21546;SDS011;41275;51.912;4.388;2023-03-23T05:01:42;9.02;;;1.95;;
21546;SDS011;41275;51.912;4.388;2023-03-23T05:07:06;5.90;;;1.63;;
21546;SDS011;41275;51.912;4.388;2023-03-23T05:12:28;9.80;;;2.10;;
21546;SDS011;41275;51.912;4.388;2023-03-23T05:17:51;7.07;;;1.60;;
21546;SDS011;41275;51.912;4.388;2023-03-23T05:23:12;10.83;;;2.13;;
21546;SDS011;41275;51.912;4.388;2023-03-23T05:28:34;7.63;;;1.80;;
21546;SDS011;41275;51.912;4.388;2023-03-23T05:34:12;8.00;;;1.77;;
21546;SDS011;41275;51.912;4.388;2023-03-23T05:39:34;8.03;;;1.90;;
21546;SDS011;41275;51.912;4.388;2023-03-23T05:44:55;7.40;;;1.63;;
21546;SDS011;41275;51.912;4.388;2023-03-23T05:50:16;11.38;;;2.10;;
21546;SDS011;41275;51.912;4.388;2023-03-23T05:55:38;5.60;;;1.90;;
21546;SDS011;41275;51.912;4.388;2023-03-23T06:00:59;9.73;;;1.98;;
21546;SDS011;41275;51.912;4.388;2023-03-23T06:06:20;12.02;;;2.47;;
21546;SDS011;41275;51.912;4.388;2023-03-23T06:11:42;9.13;;;1.80;;
21546;SDS011;41275;51.912;4.388;2023-03-23T06:17:03;8.05;;;1.95;;
21546;SDS011;41275;51.912;4.388;2023-03-23T06:22:24;10.17;;;1.60;;
21546;SDS011;41275;51.912;4.388;2023-03-23T06:27:46;9.50;;;2.20;;
21546;SDS011;41275;51.912;4.388;2023-03-23T06:33:07;8.88;;;1.83;;
21546;SDS011;41275;51.912;4.388;2023-03-23T06:38:30;10.05;;;1.98;;
21546;SDS011;41275;51.912;4.388;2023-03-23T06:43:52;7.72;;;1.77;;
21546;SDS011;41275;51.912;4.388;2023-03-23T06:49:14;9.10;;;1.87;;
21546;SDS011;41275;51.912;4.388;2023-03-23T06:54:36;7.57;;;1.77;;
21546;SDS011;41275;51.912;4.388;2023-03-23T06:59:59;8.80;;;1.90;;
21546;SDS011;41275;51.912;4.388;2023-03-23T07:05:20;10.77;;;2.43;;
21546;SDS011;41275;51.912;4.388;2023-03-23T07:10:41;12.88;;;2.50;;
21546;SDS011;41275;51.912;4.388;2023-03-23T07:16:04;10.48;;;1.85;;
21546;SDS011;41275;51.912;4.388;2023-03-23T07:21:26;9.67;;;1.93;;
21546;SDS011;41275;51.912;4.388;2023-03-23T07:26:48;11.00;;;1.83;;
21546;SDS011;41275;51.912;4.388;2023-03-23T07:32:10;10.77;;;1.90;;
21546;SDS011;41275;51.912;4.388;2023-03-23T07:37:32;11.48;;;2.22;;
21546;SDS011;41275;51.912;4.388;2023-03-23T07:42:57;8.45;;;2.13;;
21546;SDS011;41275;51.912;4.388;2023-03-23T07:48:18;8.35;;;1.83;;
21546;SDS011;41275;51.912;4.388;2023-03-23T07:53:39;10.07;;;2.03;;
21546;SDS011;41275;51.912;4.388;2023-03-23T07:59:02;9.38;;;2.20;;
21546;SDS011;41275;51.912;4.388;2023-03-23T08:04:25;11.05;;;2.08;;
21546;SDS011;41275;51.912;4.388;2023-03-23T08:09:48;12.13;;;1.92;;
21546;SDS011;41275;51.912;4.388;2023-03-23T08:15:09;8.07;;;1.70;;
21546;SDS011;41275;51.912;4.388;2023-03-23T08:20:39;9.45;;;1.70;;
21546;SDS011;41275;51.912;4.388;2023-03-23T08:26:01;12.48;;;1.95;;
21546;SDS011;41275;51.912;4.388;2023-03-23T08:31:22;12.10;;;2.23;;
21546;SDS011;41275;51.912;4.388;2023-03-23T08:36:52;10.60;;;1.77;;
21546;SDS011;41275;51.912;4.388;2023-03-23T08:42:14;10.15;;;1.90;;
21546;SDS011;41275;51.912;4.388;2023-03-23T08:47:41;9.70;;;2.00;;
21546;SDS011;41275;51.912;4.388;2023-03-23T08:53:03;9.80;;;1.83;;
21546;SDS011;41275;51.912;4.388;2023-03-23T08:58:24;9.57;;;2.07;;
21546;SDS011;41275;51.912;4.388;2023-03-23T09:03:45;14.55;;;2.20;;
21546;SDS011;41275;51.912;4.388;2023-03-23T09:09:06;13.15;;;2.42;;
21546;SDS011;41275;51.912;4.388;2023-03-23T09:14:29;10.20;;;1.77;;
21546;SDS011;41275;51.912;4.388;2023-03-23T09:19:51;11.43;;;2.30;;
21546;SDS011;41275;51.912;4.388;2023-03-23T09:25:13;12.43;;;2.55;;
21546;SDS011;41275;51.912;4.388;2023-03-23T09:30:37;12.67;;;2.30;;
21546;SDS011;41275;51.912;4.388;2023-03-23T09:35:59;15.93;;;2.50;;
21546;SDS011;41275;51.912;4.388;2023-03-23T09:47:12;13.40;;;2.53;;
21546;SDS011;41275;51.912;4.388;2023-03-23T09:53:12;12.38;;;1.98;;
21546;SDS011;41275;51.912;4.388;2023-03-23T09:58:45;12.53;;;2.70;;
21546;SDS011;41275;51.912;4.388;2023-03-23T10:04:30;15.37;;;2.07;;
21546;SDS011;41275;51.912;4.388;2023-03-23T10:09:57;16.20;;;2.87;;
21546;SDS011;41275;51.912;4.388;2023-03-23T10:15:24;14.40;;;2.28;;
21546;SDS011;41275;51.912;4.388;2023-03-23T10:20:59;15.18;;;2.58;;
21546;SDS011;41275;51.912;4.388;2023-03-23T10:26:44;11.20;;;1.98;;
21546;SDS011;41275;51.912;4.388;2023-03-23T10:32:10;15.90;;;2.47;;
21546;SDS011;41275;51.912;4.388;2023-03-23T10:37:36;13.50;;;2.43;;
21546;SDS011;41275;51.912;4.388;2023-03-23T10:43:02;15.90;;;2.50;;
21546;SDS011;41275;51.912;4.388;2023-03-23T10:48:30;14.83;;;2.63;;
21546;SDS011;41275;51.912;4.388;2023-03-23T10:53:56;11.53;;;2.43;;
21546;SDS011;41275;51.912;4.388;2023-03-23T10:59:21;11.07;;;2.45;;
21546;SDS011;41275;51.912;4.388;2023-03-23T11:04:54;13.68;;;2.20;;
21546;SDS011;41275;51.912;4.388;2023-03-23T11:10:39;14.73;;;2.35;;
21546;SDS011;41275;51.912;4.388;2023-03-23T11:16:23;9.43;;;2.00;;
21546;SDS011;41275;51.912;4.388;2023-03-23T11:21:57;11.05;;;2.30;;
21546;SDS011;41275;51.912;4.388;2023-03-23T11:27:27;13.60;;;2.33;;
21546;SDS011;41275;51.912;4.388;2023-03-23T11:32:49;12.10;;;2.20;;
21546;SDS011;41275;51.912;4.388;2023-03-23T11:38:19;9.65;;;1.83;;
21546;SDS011;41275;51.912;4.388;2023-03-23T11:43:44;9.70;;;2.00;;
21546;SDS011;41275;51.912;4.388;2023-03-23T11:49:09;8.37;;;1.67;;
21546;SDS011;41275;51.912;4.388;2023-03-23T11:54:46;8.90;;;1.77;;
21546;SDS011;41275;51.912;4.388;2023-03-23T12:00:12;10.73;;;1.55;;
21546;SDS011;41275;51.912;4.388;2023-03-23T12:05:44;9.52;;;2.13;;
21546;SDS011;41275;51.912;4.388;2023-03-23T12:22:34;8.15;;;1.80;;
21546;SDS011;41275;51.912;4.388;2023-03-23T12:28:04;8.98;;;1.77;;
21546;SDS011;41275;51.912;4.388;2023-03-23T12:33:38;7.53;;;1.67;;
21546;SDS011;41275;51.912;4.388;2023-03-23T12:45:18;10.85;;;1.90;;
21546;SDS011;41275;51.912;4.388;2023-03-23T12:56:21;9.45;;;1.63;;
21546;SDS011;41275;51.912;4.388;2023-03-23T13:02:01;9.85;;;1.92;;
21546;SDS011;41275;51.912;4.388;2023-03-23T13:07:49;13.87;;;2.47;;
21546;SDS011;41275;51.912;4.388;2023-03-23T13:13:59;7.97;;;1.88;;
21546;SDS011;41275;51.912;4.388;2023-03-23T13:25:39;12.38;;;2.22;;
21546;SDS011;41275;51.912;4.388;2023-03-23T13:31:11;14.32;;;2.05;;
21546;SDS011;41275;51.912;4.388;2023-03-23T13:36:36;12.23;;;2.05;;
21546;SDS011;41275;51.912;4.388;2023-03-23T13:47:35;9.40;;;1.70;;
21546;SDS011;41275;51.912;4.388;2023-03-23T13:52:59;9.18;;;1.90;;
21546;SDS011;41275;51.912;4.388;2023-03-23T13:58:23;11.48;;;2.35;;
21546;SDS011;41275;51.912;4.388;2023-03-23T14:03:48;13.77;;;2.50;;
21546;SDS011;41275;51.912;4.388;2023-03-23T14:14:46;9.13;;;1.90;;
21546;SDS011;41275;51.912;4.388;2023-03-23T14:20:19;9.63;;;1.98;;
21546;SDS011;41275;51.912;4.388;2023-03-23T14:25:54;10.00;;;2.20;;
21546;SDS011;41275;51.912;4.388;2023-03-23T14:31:26;9.40;;;1.60;;
21546;SDS011;41275;51.912;4.388;2023-03-23T14:36:49;13.13;;;2.15;;
21546;SDS011;41275;51.912;4.388;2023-03-23T14:42:11;6.87;;;1.70;;
21546;SDS011;41275;51.912;4.388;2023-03-23T14:47:35;11.00;;;1.92;;
21546;SDS011;41275;51.912;4.388;2023-03-23T14:53:16;10.20;;;2.25;;
21546;SDS011;41275;51.912;4.388;2023-03-23T14:59:02;9.77;;;2.00;;
21546;SDS011;41275;51.912;4.388;2023-03-23T15:04:26;12.77;;;2.45;;
21546;SDS011;41275;51.912;4.388;2023-03-23T15:09:47;16.40;;;2.45;;
21546;SDS011;41275;51.912;4.388;2023-03-23T15:15:16;10.60;;;2.45;;
21546;SDS011;41275;51.912;4.388;2023-03-23T15:20:47;13.93;;;2.53;;
21546;SDS011;41275;51.912;4.388;2023-03-23T15:31:50;15.02;;;2.60;;
21546;SDS011;41275;51.912;4.388;2023-03-23T15:37:35;11.37;;;2.13;;
21546;SDS011;41275;51.912;4.388;2023-03-23T15:43:15;13.20;;;2.63;;
21546;SDS011;41275;51.912;4.388;2023-03-23T15:54:18;14.37;;;2.83;;
21546;SDS011;41275;51.912;4.388;2023-03-23T15:59:39;11.65;;;2.28;;
21546;SDS011;41275;51.912;4.388;2023-03-23T16:05:00;14.60;;;2.47;;
21546;SDS011;41275;51.912;4.388;2023-03-23T16:10:23;16.73;;;2.90;;
21546;SDS011;41275;51.912;4.388;2023-03-23T16:15:45;13.52;;;2.72;;
21546;SDS011;41275;51.912;4.388;2023-03-23T16:21:08;19.23;;;3.10;;
21546;SDS011;41275;51.912;4.388;2023-03-23T16:26:29;10.20;;;2.30;;
21546;SDS011;41275;51.912;4.388;2023-03-23T16:31:50;21.10;;;2.97;;
21546;SDS011;41275;51.912;4.388;2023-03-23T16:37:12;13.85;;;2.35;;
21546;SDS011;41275;51.912;4.388;2023-03-23T16:42:33;14.43;;;3.00;;
21546;SDS011;41275;51.912;4.388;2023-03-23T16:47:54;12.20;;;2.60;;
21546;SDS011;41275;51.912;4.388;2023-03-23T16:53:21;15.03;;;2.67;;
21546;SDS011;41275;51.912;4.388;2023-03-23T16:58:42;16.80;;;2.90;;
21546;SDS011;41275;51.912;4.388;2023-03-23T17:04:03;14.65;;;2.78;;
21546;SDS011;41275;51.912;4.388;2023-03-23T17:09:25;15.40;;;2.70;;
21546;SDS011;41275;51.912;4.388;2023-03-23T17:14:47;12.17;;;3.10;;
21546;SDS011;41275;51.912;4.388;2023-03-23T17:20:08;16.30;;;2.60;;
21546;SDS011;41275;51.912;4.388;2023-03-23T17:25:33;10.18;;;1.80;;
21546;SDS011;41275;51.912;4.388;2023-03-23T17:30:57;14.50;;;2.43;;
21546;SDS011;41275;51.912;4.388;2023-03-23T17:36:18;11.27;;;2.45;;
21546;SDS011;41275;51.912;4.388;2023-03-23T17:41:40;9.98;;;2.35;;
21546;SDS011;41275;51.912;4.388;2023-03-23T17:47:01;8.27;;;1.80;;
21546;SDS011;41275;51.912;4.388;2023-03-23T17:52:23;11.00;;;2.10;;
21546;SDS011;41275;51.912;4.388;2023-03-23T17:57:44;15.23;;;2.10;;
21546;SDS011;41275;51.912;4.388;2023-03-23T18:03:06;8.75;;;2.05;;
21546;SDS011;41275;51.912;4.388;2023-03-23T18:08:27;11.93;;;2.00;;
21546;SDS011;41275;51.912;4.388;2023-03-23T18:13:48;12.40;;;2.37;;
21546;SDS011;41275;51.912;4.388;2023-03-23T18:19:10;9.52;;;2.50;;
21546;SDS011;41275;51.912;4.388;2023-03-23T18:24:31;13.27;;;2.92;;
21546;SDS011;41275;51.912;4.388;2023-03-23T18:29:52;12.97;;;2.37;;
21546;SDS011;41275;51.912;4.388;2023-03-23T18:35:14;10.00;;;1.90;;
21546;SDS011;41275;51.912;4.388;2023-03-23T18:40:35;11.77;;;1.97;;
21546;SDS011;41275;51.912;4.388;2023-03-23T18:46:02;11.67;;;2.20;;
21546;SDS011;41275;51.912;4.388;2023-03-23T18:51:23;7.50;;;1.70;;
21546;SDS011;41275;51.912;4.388;2023-03-23T18:56:46;13.18;;;2.38;;
21546;SDS011;41275;51.912;4.388;2023-03-23T19:02:08;15.83;;;4.70;;
21546;SDS011;41275;51.912;4.388;2023-03-23T19:07:31;10.07;;;2.20;;
21546;SDS011;41275;51.912;4.388;2023-03-23T19:12:52;10.80;;;2.25;;
21546;SDS011;41275;51.912;4.388;2023-03-23T19:18:13;10.88;;;2.45;;
21546;SDS011;41275;51.912;4.388;2023-03-23T19:23:34;9.10;;;2.42;;
21546;SDS011;41275;51.912;4.388;2023-03-23T19:28:56;11.27;;;3.13;;
21546;SDS011;41275;51.912;4.388;2023-03-23T19:34:18;11.73;;;3.37;;
21546;SDS011;41275;51.912;4.388;2023-03-23T19:39:39;11.18;;;2.35;;
21546;SDS011;41275;51.912;4.388;2023-03-23T19:45:00;10.38;;;2.45;;
21546;SDS011;41275;51.912;4.388;2023-03-23T19:50:22;13.13;;;2.90;;
21546;SDS011;41275;51.912;4.388;2023-03-23T19:55:43;11.95;;;2.78;;
21546;SDS011;41275;51.912;4.388;2023-03-23T20:01:04;9.13;;;2.30;;
21546;SDS011;41275;51.912;4.388;2023-03-23T20:06:26;12.05;;;2.88;;
21546;SDS011;41275;51.912;4.388;2023-03-23T20:11:47;13.85;;;2.92;;
21546;SDS011;41275;51.912;4.388;2023-03-23T20:17:09;10.43;;;3.07;;
21546;SDS011;41275;51.912;4.388;2023-03-23T20:22:31;13.55;;;2.58;;
21546;SDS011;41275;51.912;4.388;2023-03-23T20:27:52;11.95;;;2.90;;
21546;SDS011;41275;51.912;4.388;2023-03-23T20:33:13;12.20;;;3.07;;
21546;SDS011;41275;51.912;4.388;2023-03-23T20:38:37;9.85;;;2.67;;
21546;SDS011;41275;51.912;4.388;2023-03-23T20:44:00;11.43;;;3.13;;
21546;SDS011;41275;51.912;4.388;2023-03-23T20:49:22;16.35;;;4.60;;
21546;SDS011;41275;51.912;4.388;2023-03-23T20:54:43;13.13;;;3.00;;
21546;SDS011;41275;51.912;4.388;2023-03-23T21:00:05;11.90;;;3.20;;
21546;SDS011;41275;51.912;4.388;2023-03-23T21:05:29;9.93;;;3.23;;
21546;SDS011;41275;51.912;4.388;2023-03-23T21:10:50;12.48;;;3.30;;
21546;SDS011;41275;51.912;4.388;2023-03-23T21:16:14;11.98;;;3.42;;
21546;SDS011;41275;51.912;4.388;2023-03-23T21:21:36;10.07;;;3.17;;
21546;SDS011;41275;51.912;4.388;2023-03-23T21:27:02;11.55;;;2.78;;
21546;SDS011;41275;51.912;4.388;2023-03-23T21:32:24;9.93;;;2.63;;
21546;SDS011;41275;51.912;4.388;2023-03-23T21:37:46;9.60;;;2.20;;
21546;SDS011;41275;51.912;4.388;2023-03-23T21:43:12;7.15;;;2.55;;
21546;SDS011;41275;51.912;4.388;2023-03-23T21:48:36;7.88;;;2.75;;
21546;SDS011;41275;51.912;4.388;2023-03-23T21:54:01;6.33;;;2.30;;
21546;SDS011;41275;51.912;4.388;2023-03-23T21:59:23;6.40;;;2.15;;
21546;SDS011;41275;51.912;4.388;2023-03-23T22:04:45;7.95;;;2.20;;
21546;SDS011;41275;51.912;4.388;2023-03-23T22:10:06;8.50;;;2.28;;
21546;SDS011;41275;51.912;4.388;2023-03-23T22:15:28;6.70;;;2.28;;
21546;SDS011;41275;51.912;4.388;2023-03-23T22:20:50;7.60;;;2.17;;
21546;SDS011;41275;51.912;4.388;2023-03-23T22:26:12;7.95;;;2.45;;
21546;SDS011;41275;51.912;4.388;2023-03-23T22:31:37;6.97;;;2.10;;
21546;SDS011;41275;51.912;4.388;2023-03-23T22:36:59;8.17;;;2.20;;
21546;SDS011;41275;51.912;4.388;2023-03-23T22:42:20;6.60;;;2.20;;
21546;SDS011;41275;51.912;4.388;2023-03-23T22:47:41;8.35;;;1.95;;
21546;SDS011;41275;51.912;4.388;2023-03-23T22:53:13;7.43;;;2.10;;
21546;SDS011;41275;51.912;4.388;2023-03-23T22:58:35;6.70;;;1.80;;
21546;SDS011;41275;51.912;4.388;2023-03-23T23:03:57;9.27;;;2.10;;
21546;SDS011;41275;51.912;4.388;2023-03-23T23:09:18;7.55;;;2.15;;
21546;SDS011;41275;51.912;4.388;2023-03-23T23:14:42;6.63;;;1.92;;
21546;SDS011;41275;51.912;4.388;2023-03-23T23:20:04;7.22;;;2.00;;
21546;SDS011;41275;51.912;4.388;2023-03-23T23:25:27;5.27;;;2.03;;
21546;SDS011;41275;51.912;4.388;2023-03-23T23:30:49;8.37;;;1.90;;
21546;SDS011;41275;51.912;4.388;2023-03-23T23:36:11;6.80;;;2.08;;
21546;SDS011;41275;51.912;4.388;2023-03-23T23:41:37;6.15;;;1.85;;
21546;SDS011;41275;51.912;4.388;2023-03-23T23:47:10;6.63;;;1.85;;
21546;SDS011;41275;51.912;4.388;2023-03-23T23:52:32;6.40;;;2.10;;
21546;SDS011;41275;51.912;4.388;2023-03-23T23:57:54;8.53;;;2.30;;
